Deadwood, SD (57732)

2:39 AM MDT on April 28, 2017 (GMT -0600)
Lower Nevada Gulch | | Change Station

Elev 5403 ft 44.34 °N, 103.79 °W | Updated 30 seconds ago

Overcast
Overcast
29.8 °F
Feels Like 30 °F
N
0.0
Wind Variable Wind from NNE

Today
High -- | Low -- °F
--% Chance of Precip.
Yesterday
High -- | Low -- °F
Precip. -- in
Pressure 29.76 in
Visibility 9.0 miles
Clouds Few 1800 ft
Scattered Clouds 2800 ft
Mostly Cloudy 3500 ft
Windchill 30 °F
Dew Point 29 °F
Humidity 96%
Rainfall 0.00 in
Snow Depth Not available.
5:49 AM 7:55 PM
Waxing Crescent, 5% visible
METAR KSPF 280835Z AUTO 11010KT 9SM FEW018 SCT028 BKN035 02/00 A2976 RMK AO2
Pressure 29.76 in
Visibility 9.0 miles
Clouds Few 1800 ft
Scattered Clouds 2800 ft
Mostly Cloudy 3500 ft
Windchill 30 °F
Dew Point 29 °F
Humidity 96%
Rainfall 0.00 in
Snow Depth Not available.
5:49 AM 7:55 PM
Waxing Crescent, 5% visible
METAR KSPF 280835Z AUTO 11010KT 9SM FEW018 SCT028 BKN035 02/00 A2976 RMK AO2

Get Severe Weather Alerts

Thanks for signing up!

Be on the lookout for a verification email in your inbox.

You'll start receiving the daily forecast at 8 AM.

×

10-Day Weather Forecast

Almanac

Astronomy

Apr. 28, 2017 Rise Set
Actual Time
Civil Twilight
Nautical Twilight
Astronomical Twilight
Moon
Length of Visible Light
Length of Day
Tomorrow will be .
, % of the Moon is Illuminated

Today's Extremes

State Highs State Lows

Community

WunderPhotos

WunderBlog® & News

Nearby

Air Quality

  Air Quality AQ Index Pollutant
Not available.

Snow Depth

Station Depth Elevation

Earthquake Activity

City Distance Mag. Time & Date
Minimum magnitude displayed is 2.5.

Coastal Water Temperatures

Place Temperature

Stations

Nearby Weather Stations

Station Location Temp. Windchill Dew Point Humidity Wind Precip. Elev Updated Type
                   

Watches & Warnings

There are currently no watches in effect.